Taberville, Missouri
Current Conditions -  °F | °C
As of 8:35 AM on Monday 26 Jan 2015 (Local Time) from KGLY Reporting Station
Haze Haze  
Wind Chill: 26°   Ceiling: Unl
Heat Index: 32°   Visibility: 6mi
Dew Point: 32°   Wind: 6mph
Humidity: 100%   Direction: 200°SSW
Pressure: 30.06"   Gusts: NA
Location:  38.0755°N, 94.1669°W
Report Text: KGLY 261435Z AUTO 20005KT 6SM BR CLR 00/00 A3006 RMK AO2
Loading
Personal Weather Stations






























Interactive Weather Map New forecast layout! Learn more

10-Day Weather Forecast

Advertisements
Track Severe Weather on mobile